Time;durP1;ratioP1;P1;durP2;ratioP2;P2;SDS_P1;SDS_P2;PMS_P1;PMS_P2;Temp;Humidity;BMP_temperature;BMP_pressure;BME280_temperature;BME280_humidity;BME280_pressure;Samples;Min_cycle;Max_cycle;Signal;HPM_P1;HPM_P2
2023/04/06 00:00:02;;;;;;;2.33;1.40;;;;;;;;;;4911234;29;20048;-59
2023/04/06 00:02:30;;;;;;;0.50;0.50;;;;;;;;;;4911170;29;20055;-59
2023/04/06 00:05:00;;;;;;;1.10;1.00;;;;;;;;;;4910316;29;20067;-58
2023/04/06 00:07:29;;;;;;;0.47;0.47;;;;;;;;;;4911248;29;20067;-58
2023/04/06 00:09:58;;;;;;;0.75;0.40;;;;;;;;;;4909274;29;20134;-59
2023/04/06 00:12:26;;;;;;;0.75;0.50;;;;;;;;;;4910045;29;20134;-58
2023/04/06 00:14:54;;;;;;;1.40;1.05;;;;;;;;;;4911182;29;20056;-59
2023/04/06 00:17:23;;;;;;;2.55;0.60;;;;;;;;;;4910089;29;20525;-59
2023/04/06 00:19:51;;;;;;;0.68;0.68;;;;;;;;;;4900491;29;20069;-58
2023/04/06 00:22:21;;;;;;;8.35;0.52;;;;;;;;;;4910421;29;20418;-58
2023/04/06 00:24:49;;;;;;;3.55;1.25;;;;;;;;;;4914658;29;20071;-59
2023/04/06 00:27:18;;;;;;;1.40;0.77;;;;;;;;;;4912196;29;20227;-59
2023/04/06 00:29:46;;;;;;;1.60;1.40;;;;;;;;;;4915569;29;20047;-59
2023/04/06 00:32:15;;;;;;;0.60;0.55;;;;;;;;;;4913964;29;20438;-58
2023/04/06 00:34:43;;;;;;;1.35;1.27;;;;;;;;;;4915896;29;20058;-59
2023/04/06 00:37:12;;;;;;;3.03;1.63;;;;;;;;;;4912881;29;20044;-59
2023/04/06 00:39:42;;;;;;;0.60;0.60;;;;;;;;;;4915477;29;20048;-59
2023/04/06 00:42:13;;;;;;;2.42;0.70;;;;;;;;;;4909231;29;20048;-59
2023/04/06 00:44:41;;;;;;;3.25;0.93;;;;;;;;;;4915385;29;20139;-61
2023/04/06 00:47:10;;;;;;;0.95;0.90;;;;;;;;;;4901232;29;20048;-59
2023/04/06 00:49:38;;;;;;;2.20;0.57;;;;;;;;;;4915153;29;20443;-59
2023/04/06 00:52:07;;;;;;;1.38;1.25;;;;;;;;;;4913763;29;20058;-59
2023/04/06 00:54:35;;;;;;;1.10;0.85;;;;;;;;;;4914895;29;20151;-59
2023/04/06 00:57:05;;;;;;;0.77;0.52;;;;;;;;;;4912275;29;20143;-59
2023/04/06 00:59:33;;;;;;;0.28;0.28;;;;;;;;;;4914829;29;20048;-60
2023/04/06 01:02:02;;;;;;;1.55;0.93;;;;;;;;;;4913514;29;20052;-59
2023/04/06 01:04:30;;;;;;;1.40;1.30;;;;;;;;;;4920084;23;20057;-60
2023/04/06 01:06:58;;;;;;;0.90;0.90;;;;;;;;;;4901023;29;20055;-60
2023/04/06 01:09:29;;;;;;;1.08;0.65;;;;;;;;;;4900895;29;20052;-59
2023/04/06 01:11:57;;;;;;;0.68;0.60;;;;;;;;;;4900686;29;20052;-60
2023/04/06 01:14:27;;;;;;;1.75;0.55;;;;;;;;;;4901002;29;20227;-59
2023/04/06 01:16:56;;;;;;;0.65;0.52;;;;;;;;;;4901411;29;20055;-60
2023/04/06 01:19:24;;;;;;;0.40;0.40;;;;;;;;;;4900482;29;20059;-59
2023/04/06 01:21:53;;;;;;;4.13;0.93;;;;;;;;;;4901299;29;20052;-60
2023/04/06 01:24:23;;;;;;;1.33;0.90;;;;;;;;;;4900371;29;20132;-60
2023/04/06 01:26:51;;;;;;;0.75;0.65;;;;;;;;;;4900469;29;20246;-60
2023/04/06 01:29:20;;;;;;;3.10;0.60;;;;;;;;;;4901140;29;20053;-59
2023/04/06 01:31:48;;;;;;;0.75;0.75;;;;;;;;;;4900063;29;20414;-59
2023/04/06 01:34:17;;;;;;;0.50;0.50;;;;;;;;;;4899886;29;20056;-59
2023/04/06 01:36:45;;;;;;;0.52;0.52;;;;;;;;;;4898253;29;20490;-59
2023/04/06 01:39:13;;;;;;;1.35;0.63;;;;;;;;;;4892164;29;20084;-59
2023/04/06 01:41:43;;;;;;;0.60;0.60;;;;;;;;;;4894024;29;20052;-60
2023/04/06 01:44:12;;;;;;;0.40;0.40;;;;;;;;;;4891372;29;20052;-60
2023/04/06 01:46:40;;;;;;;0.40;0.40;;;;;;;;;;4904029;29;20071;-59
2023/04/06 01:49:08;;;;;;;0.95;0.50;;;;;;;;;;4910283;29;20044;-59
2023/04/06 01:51:37;;;;;;;2.42;0.50;;;;;;;;;;4912557;29;20048;-60
2023/04/06 01:54:06;;;;;;;0.93;0.93;;;;;;;;;;4913636;29;20067;-59
2023/04/06 01:56:34;;;;;;;0.70;0.70;;;;;;;;;;4912160;29;20051;-59
2023/04/06 01:59:04;;;;;;;0.57;0.57;;;;;;;;;;4912720;29;20130;-59
2023/04/06 02:01:33;;;;;;;1.20;0.70;;;;;;;;;;4914958;29;20052;-59
2023/04/06 02:04:01;;;;;;;0.63;0.63;;;;;;;;;;4912483;29;20067;-59
2023/04/06 02:06:30;;;;;;;2.67;1.25;;;;;;;;;;4912209;29;20064;-60
2023/04/06 02:08:58;;;;;;;1.20;1.10;;;;;;;;;;4910323;29;20514;-59
2023/04/06 02:11:27;;;;;;;2.53;0.68;;;;;;;;;;4911920;29;20056;-60
2023/04/06 02:13:56;;;;;;;1.35;1.15;;;;;;;;;;4908071;29;20398;-59
2023/04/06 02:16:25;;;;;;;4.88;0.95;;;;;;;;;;4912007;29;20055;-60
2023/04/06 02:18:54;;;;;;;1.50;0.93;;;;;;;;;;4913629;29;20048;-59
2023/04/06 02:21:22;;;;;;;1.35;0.73;;;;;;;;;;4903893;29;20421;-59
2023/04/06 02:23:51;;;;;;;0.60;0.45;;;;;;;;;;4913885;29;20048;-59
2023/04/06 02:26:19;;;;;;;0.57;0.55;;;;;;;;;;4911461;29;20044;-59
2023/04/06 02:28:48;;;;;;;1.10;0.47;;;;;;;;;;4912812;29;20058;-59
2023/04/06 02:31:17;;;;;;;0.43;0.43;;;;;;;;;;4910023;29;20504;-59
2023/04/06 02:33:46;;;;;;;5.10;0.80;;;;;;;;;;4914088;29;20055;-59
2023/04/06 02:36:15;;;;;;;1.77;1.23;;;;;;;;;;4912371;29;20062;-59
2023/04/06 02:38:43;;;;;;;0.40;0.40;;;;;;;;;;4913294;29;20077;-59
2023/04/06 02:41:12;;;;;;;0.82;0.47;;;;;;;;;;4912829;29;20052;-59
2023/04/06 02:43:40;;;;;;;2.05;1.15;;;;;;;;;;4909253;29;20131;-59
2023/04/06 02:46:08;;;;;;;1.77;0.65;;;;;;;;;;4910829;29;20419;-59
2023/04/06 02:48:37;;;;;;;1.55;0.90;;;;;;;;;;4913606;29;20055;-59
2023/04/06 02:51:07;;;;;;;0.32;0.32;;;;;;;;;;4909776;29;20044;-59
2023/04/06 02:53:35;;;;;;;0.28;0.28;;;;;;;;;;4913184;29;20413;-59
2023/04/06 02:56:03;;;;;;;1.33;0.70;;;;;;;;;;4912260;29;20502;-59
2023/04/06 02:58:32;;;;;;;0.52;0.52;;;;;;;;;;4913248;29;20048;-59
2023/04/06 03:01:00;;;;;;;0.95;0.68;;;;;;;;;;4910761;29;20040;-60
2023/04/06 03:03:29;;;;;;;2.53;1.35;;;;;;;;;;4913420;29;20048;-59
2023/04/06 03:05:59;;;;;;;1.48;0.40;;;;;;;;;;4910728;29;20148;-59
2023/04/06 03:08:29;;;;;;;7.13;0.82;;;;;;;;;;4913043;29;20052;-59
2023/04/06 03:10:58;;;;;;;0.65;0.65;;;;;;;;;;4911301;29;20056;-59
2023/04/06 03:13:26;;;;;;;0.57;0.57;;;;;;;;;;4911499;29;20131;-59
2023/04/06 03:15:54;;;;;;;2.75;0.82;;;;;;;;;;4908644;29;20117;-59
2023/04/06 03:18:24;;;;;;;0.50;0.50;;;;;;;;;;4912067;29;20055;-59
2023/04/06 03:20:54;;;;;;;0.55;0.55;;;;;;;;;;4911982;29;20044;-59
2023/04/06 03:23:22;;;;;;;1.33;1.13;;;;;;;;;;4913322;29;20111;-60
2023/04/06 03:25:52;;;;;;;0.88;0.77;;;;;;;;;;4911349;29;20133;-59
2023/04/06 03:28:20;;;;;;;0.30;0.30;;;;;;;;;;4911445;29;20056;-59
2023/04/06 03:30:49;;;;;;;0.35;0.35;;;;;;;;;;4912070;29;20502;-59
2023/04/06 03:33:17;;;;;;;1.00;0.95;;;;;;;;;;4913275;29;20516;-59
2023/04/06 03:35:45;;;;;;;0.73;0.60;;;;;;;;;;4909624;29;20056;-59
2023/04/06 03:38:14;;;;;;;0.98;0.45;;;;;;;;;;4912715;29;20055;-60
2023/04/06 03:40:43;;;;;;;0.38;0.38;;;;;;;;;;4907874;29;20048;-59
2023/04/06 03:43:13;;;;;;;0.20;0.20;;;;;;;;;;4898649;29;20467;-59
2023/04/06 03:45:41;;;;;;;0.43;0.43;;;;;;;;;;4910148;29;20401;-59
2023/04/06 03:48:09;;;;;;;0.50;0.50;;;;;;;;;;4912802;29;20461;-59
2023/04/06 03:50:38;;;;;;;1.30;0.57;;;;;;;;;;4910454;29;20044;-59
2023/04/06 03:53:06;;;;;;;1.20;0.55;;;;;;;;;;4910601;29;20048;-59
2023/04/06 03:55:35;;;;;;;0.52;0.52;;;;;;;;;;4912579;29;20055;-59
2023/04/06 03:58:03;;;;;;;2.00;1.05;;;;;;;;;;4910023;29;20072;-59
2023/04/06 04:00:33;;;;;;;0.32;0.32;;;;;;;;;;4911345;29;20052;-60
2023/04/06 04:03:02;;;;;;;1.00;0.63;;;;;;;;;;4910401;29;20044;-59
2023/04/06 04:05:30;;;;;;;0.85;0.57;;;;;;;;;;4906552;29;20124;-59
2023/04/06 04:07:59;;;;;;;4.30;0.43;;;;;;;;;;4908222;29;20056;-59
2023/04/06 04:10:27;;;;;;;0.30;0.30;;;;;;;;;;4912223;29;20049;-59
2023/04/06 04:12:56;;;;;;;0.95;0.75;;;;;;;;;;4905258;29;20051;-59
2023/04/06 04:15:24;;;;;;;1.55;0.52;;;;;;;;;;4905303;29;20490;-59
2023/04/06 04:17:54;;;;;;;1.55;0.88;;;;;;;;;;4912197;29;21390;-59
2023/04/06 04:20:22;;;;;;;1.65;0.70;;;;;;;;;;4909740;29;20052;-59
2023/04/06 04:22:51;;;;;;;1.20;0.43;;;;;;;;;;4910405;29;20086;-59
2023/04/06 04:25:19;;;;;;;2.05;1.35;;;;;;;;;;4909917;29;20056;-59
2023/04/06 04:27:48;;;;;;;1.58;0.75;;;;;;;;;;4905715;29;20047;-59
2023/04/06 04:30:16;;;;;;;1.13;1.13;;;;;;;;;;4912259;29;20044;-59
2023/04/06 04:32:45;;;;;;;1.05;0.70;;;;;;;;;;4904948;29;20048;-59
2023/04/06 04:35:14;;;;;;;1.65;0.95;;;;;;;;;;4908725;29;20044;-59
2023/04/06 04:37:43;;;;;;;0.65;0.65;;;;;;;;;;4909991;29;20044;-59
2023/04/06 04:40:12;;;;;;;0.70;0.70;;;;;;;;;;4909697;29;20071;-60
2023/04/06 04:42:40;;;;;;;0.30;0.30;;;;;;;;;;4903940;29;20056;-59
2023/04/06 04:45:09;;;;;;;1.23;1.02;;;;;;;;;;4910232;29;20059;-59
2023/04/06 04:47:37;;;;;;;0.50;0.50;;;;;;;;;;4910441;29;20070;-59
2023/04/06 04:50:06;;;;;;;1.20;1.02;;;;;;;;;;4910586;29;20099;-59
2023/04/06 04:52:36;;;;;;;0.63;0.63;;;;;;;;;;4908553;29;20071;-59
2023/04/06 04:55:05;;;;;;;2.55;0.90;;;;;;;;;;4910771;29;20048;-57
2023/04/06 04:57:33;;;;;;;0.88;0.68;;;;;;;;;;4907023;29;20398;-60
2023/04/06 05:00:02;;;;;;;1.38;0.75;;;;;;;;;;4907162;29;20056;-59
2023/04/06 05:02:30;;;;;;;0.80;0.80;;;;;;;;;;4906300;29;20595;-59
2023/04/06 05:04:59;;;;;;;0.60;0.60;;;;;;;;;;4908351;29;20536;-59
2023/04/06 05:07:27;;;;;;;0.52;0.52;;;;;;;;;;4897709;29;20182;-59
2023/04/06 05:09:57;;;;;;;0.50;0.50;;;;;;;;;;4910315;29;20044;-59
2023/04/06 05:12:26;;;;;;;0.50;0.50;;;;;;;;;;4910372;29;20060;-59
2023/04/06 05:14:55;;;;;;;0.88;0.85;;;;;;;;;;4906776;29;20052;-60
2023/04/06 05:17:23;;;;;;;8.40;0.57;;;;;;;;;;4911558;29;20059;-60
2023/04/06 05:19:52;;;;;;;0.80;0.40;;;;;;;;;;4900242;29;20054;-59
2023/04/06 05:22:20;;;;;;;1.33;0.60;;;;;;;;;;4909064;29;20056;-59
2023/04/06 05:24:49;;;;;;;0.20;0.20;;;;;;;;;;4910453;29;20052;-60
2023/04/06 05:27:18;;;;;;;5.32;1.15;;;;;;;;;;4913313;29;20059;-60
2023/04/06 05:29:47;;;;;;;1.05;0.70;;;;;;;;;;4914529;29;20394;-60
2023/04/06 05:32:15;;;;;;;0.52;0.52;;;;;;;;;;4912338;29;20056;-59
2023/04/06 05:34:43;;;;;;;1.00;0.95;;;;;;;;;;4915156;29;20079;-59
2023/04/06 05:37:12;;;;;;;1.17;0.70;;;;;;;;;;4913964;29;20561;-59
2023/04/06 05:39:40;;;;;;;1.45;1.05;;;;;;;;;;4908571;29;20516;-60
2023/04/06 05:42:09;;;;;;;0.80;0.60;;;;;;;;;;4911370;29;20040;-60
2023/04/06 05:44:39;;;;;;;1.23;0.45;;;;;;;;;;4914965;29;20051;-60
2023/04/06 05:47:08;;;;;;;0.32;0.32;;;;;;;;;;4914458;29;20052;-60
2023/04/06 05:49:36;;;;;;;0.82;0.82;;;;;;;;;;4914624;29;20513;-60
2023/04/06 05:52:05;;;;;;;1.90;0.52;;;;;;;;;;4915016;29;20048;-59
2023/04/06 05:54:33;;;;;;;2.53;0.60;;;;;;;;;;4914773;29;20052;-60
2023/04/06 05:57:03;;;;;;;0.45;0.45;;;;;;;;;;4912041;29;20070;-60
2023/04/06 05:59:32;;;;;;;0.50;0.40;;;;;;;;;;4913634;29;20047;-57
2023/04/06 06:02:02;;;;;;;0.50;0.50;;;;;;;;;;4914204;29;20482;-60
2023/04/06 06:04:30;;;;;;;0.50;0.50;;;;;;;;;;4913775;29;20068;-58
2023/04/06 06:06:59;;;;;;;0.45;0.40;;;;;;;;;;4912397;29;20182;-58
2023/04/06 06:09:27;;;;;;;1.60;0.57;;;;;;;;;;4913003;29;20054;-58
2023/04/06 06:11:55;;;;;;;0.47;0.47;;;;;;;;;;4910954;29;20048;-58
2023/04/06 06:14:24;;;;;;;0.95;0.65;;;;;;;;;;4912204;29;20040;-58
2023/04/06 06:16:52;;;;;;;0.40;0.40;;;;;;;;;;4913311;29;20067;-58
2023/04/06 06:19:22;;;;;;;0.38;0.38;;;;;;;;;;4912458;29;20052;-58
2023/04/06 06:21:50;;;;;;;0.82;0.45;;;;;;;;;;4912283;29;20055;-58
2023/04/06 06:24:19;;;;;;;0.32;0.32;;;;;;;;;;4914365;29;20052;-58
2023/04/06 06:26:48;;;;;;;1.63;0.60;;;;;;;;;;4912558;29;20080;-58
2023/04/06 06:29:17;;;;;;;0.60;0.60;;;;;;;;;;4910697;29;20062;-58
2023/04/06 06:31:45;;;;;;;0.57;0.43;;;;;;;;;;4914223;29;20128;-58
2023/04/06 06:34:14;;;;;;;12.38;0.95;;;;;;;;;;4914249;29;20051;-58
2023/04/06 06:36:43;;;;;;;2.03;0.57;;;;;;;;;;4910033;29;20566;-58
2023/04/06 06:39:15;;;;;;;0.70;0.70;;;;;;;;;;4901751;29;20422;-58
2023/04/06 06:41:43;;;;;;;1.13;0.65;;;;;;;;;;4913129;29;20399;-58
2023/04/06 06:44:12;;;;;;;0.52;0.30;;;;;;;;;;4912743;29;20163;-58
2023/04/06 06:46:40;;;;;;;1.02;0.55;;;;;;;;;;4912528;29;20083;-58
2023/04/06 06:49:10;;;;;;;1.17;1.08;;;;;;;;;;4913463;29;20083;-59
2023/04/06 06:51:39;;;;;;;3.05;0.88;;;;;;;;;;4912650;29;20158;-58
2023/04/06 06:54:09;;;;;;;2.08;1.38;;;;;;;;;;4908040;29;20058;-59
2023/04/06 06:56:38;;;;;;;2.22;1.05;;;;;;;;;;4912597;29;20060;-58
2023/04/06 06:59:06;;;;;;;0.80;0.80;;;;;;;;;;4912343;29;20127;-58
2023/04/06 07:01:35;;;;;;;0.77;0.77;;;;;;;;;;4913455;29;20108;-58
2023/04/06 07:04:04;;;;;;;1.73;1.52;;;;;;;;;;4913661;29;20063;-58
2023/04/06 07:06:33;;;;;;;4.15;1.75;;;;;;;;;;4912220;29;20764;-58
2023/04/06 07:09:02;;;;;;;3.85;1.25;;;;;;;;;;4911422;29;20569;-58
2023/04/06 07:11:32;;;;;;;1.05;0.95;;;;;;;;;;4913108;29;20059;-59
2023/04/06 07:14:01;;;;;;;1.45;1.33;;;;;;;;;;4912527;29;20087;-60
2023/04/06 07:16:29;;;;;;;0.90;0.63;;;;;;;;;;4913084;29;20135;-59
2023/04/06 07:18:58;;;;;;;0.90;0.90;;;;;;;;;;4909781;29;20136;-58
2023/04/06 07:21:26;;;;;;;2.00;1.63;;;;;;;;;;4910706;29;20055;-58
2023/04/06 07:23:55;;;;;;;2.15;0.98;;;;;;;;;;4911103;29;20474;-58
2023/04/06 07:26:23;;;;;;;2.47;1.48;;;;;;;;;;4912556;29;20436;-59
2023/04/06 07:28:53;;;;;;;3.35;0.98;;;;;;;;;;4911000;29;20047;-59
2023/04/06 07:31:21;;;;;;;2.03;1.42;;;;;;;;;;4913082;29;20060;-59
2023/04/06 07:33:50;;;;;;;1.80;1.23;;;;;;;;;;4913230;29;20052;-59
2023/04/06 07:36:18;;;;;;;2.92;1.90;;;;;;;;;;4912808;29;20052;-58
2023/04/06 07:38:47;;;;;;;2.30;1.73;;;;;;;;;;4911210;29;20670;-59
2023/04/06 07:41:15;;;;;;;2.22;1.15;;;;;;;;;;4909382;29;20587;-59
2023/04/06 07:43:44;;;;;;;3.00;1.75;;;;;;;;;;4911838;29;20125;-59
2023/04/06 07:46:13;;;;;;;1.83;1.60;;;;;;;;;;4912222;29;20048;-59
2023/04/06 07:48:42;;;;;;;3.67;2.03;;;;;;;;;;4912844;29;20067;-59
2023/04/06 07:51:13;;;;;;;1.58;1.48;;;;;;;;;;4913240;29;20063;-59
2023/04/06 07:53:42;;;;;;;6.65;1.70;;;;;;;;;;4910630;29;20056;-59
2023/04/06 07:56:11;;;;;;;2.65;1.40;;;;;;;;;;4910599;29;20068;-59
2023/04/06 07:58:40;;;;;;;0.73;0.55;;;;;;;;;;4911465;29;20051;-59
2023/04/06 08:01:08;;;;;;;7.90;1.33;;;;;;;;;;4912724;29;20052;-59
2023/04/06 08:03:38;;;;;;;4.75;2.03;;;;;;;;;;4912895;29;20052;-59
2023/04/06 08:06:07;;;;;;;2.65;1.98;;;;;;;;;;4911659;29;20450;-59
2023/04/06 08:08:35;;;;;;;5.40;1.08;;;;;;;;;;4912550;29;20080;-58
2023/04/06 08:11:04;;;;;;;1.80;1.52;;;;;;;;;;4912475;29;20048;-59
2023/04/06 08:13:32;;;;;;;2.92;1.48;;;;;;;;;;4911687;29;20060;-59
2023/04/06 08:16:01;;;;;;;5.85;2.58;;;;;;;;;;4910670;29;20585;-59
2023/04/06 08:18:29;;;;;;;5.80;1.88;;;;;;;;;;4912807;29;20055;-60
2023/04/06 08:20:59;;;;;;;3.75;2.22;;;;;;;;;;4912570;29;20047;-60
2023/04/06 08:23:28;;;;;;;1.92;1.35;;;;;;;;;;4912849;29;20561;-59
2023/04/06 08:25:56;;;;;;;2.20;1.55;;;;;;;;;;4911981;29;20410;-59
2023/04/06 08:28:25;;;;;;;3.53;1.67;;;;;;;;;;4911484;29;20048;-59
2023/04/06 08:30:53;;;;;;;3.80;1.63;;;;;;;;;;4912468;29;20078;-59
2023/04/06 08:33:22;;;;;;;4.20;1.52;;;;;;;;;;4912755;29;20215;-59
2023/04/06 08:35:50;;;;;;;4.88;2.50;;;;;;;;;;4912206;29;20417;-59
2023/04/06 08:38:20;;;;;;;5.18;1.60;;;;;;;;;;4912238;29;20044;-60
2023/04/06 08:40:50;;;;;;;8.68;1.60;;;;;;;;;;4911770;29;20052;-59
2023/04/06 08:43:21;;;;;;;4.50;1.50;;;;;;;;;;4910900;29;20067;-59
2023/04/06 08:45:50;;;;;;;4.30;1.60;;;;;;;;;;4913405;29;20055;-60
2023/04/06 08:48:18;;;;;;;7.70;1.75;;;;;;;;;;4916112;29;20048;-60
2023/04/06 08:50:47;;;;;;;2.45;1.73;;;;;;;;;;4916824;29;20490;-60
2023/04/06 08:53:15;;;;;;;4.35;1.55;;;;;;;;;;4916074;29;20515;-59
2023/04/06 08:55:46;;;;;;;3.08;2.08;;;;;;;;;;4915828;29;20127;-59
2023/04/06 08:58:15;;;;;;;2.58;1.77;;;;;;;;;;4915143;29;20410;-60
2023/04/06 09:01:03;;;;;;;2.13;1.40;;;;;;;;;;4908930;29;20060;-59
2023/04/06 09:03:33;;;;;;;3.92;2.03;;;;;;;;;;4915503;29;20063;-60
2023/04/06 09:06:02;;;;;;;4.20;1.75;;;;;;;;;;4911293;29;20044;-59
2023/04/06 09:08:30;;;;;;;3.60;2.85;;;;;;;;;;4912824;29;20139;-60
2023/04/06 09:11:00;;;;;;;3.67;1.60;;;;;;;;;;4913493;29;20048;-60
2023/04/06 09:13:29;;;;;;;3.50;1.63;;;;;;;;;;4915162;29;20048;-60
2023/04/06 09:16:01;;;;;;;6.18;1.77;;;;;;;;;;4913874;29;20103;-60
2023/04/06 09:18:30;;;;;;;3.47;1.75;;;;;;;;;;4915667;29;20111;-60
2023/04/06 09:21:00;;;;;;;3.72;1.65;;;;;;;;;;4912961;29;20488;-61
2023/04/06 09:23:28;;;;;;;8.27;2.42;;;;;;;;;;4915512;29;20490;-59
2023/04/06 09:26:11;;;;;;;2.50;1.25;;;;;;;;;;4914604;29;20257;-59
2023/04/06 09:28:43;;;;;;;3.28;1.63;;;;;;;;;;4915097;29;20512;-59
2023/04/06 09:31:12;;;;;;;2.17;1.80;;;;;;;;;;4915368;29;20417;-59
2023/04/06 09:33:40;;;;;;;3.78;1.77;;;;;;;;;;4911682;29;20120;-59
2023/04/06 09:36:09;;;;;;;5.20;1.30;;;;;;;;;;4909042;29;20050;-60
2023/04/06 09:38:39;;;;;;;1.52;1.08;;;;;;;;;;4914694;29;20131;-60
2023/04/06 09:41:07;;;;;;;4.55;2.10;;;;;;;;;;4912369;29;20060;-60
2023/04/06 09:43:37;;;;;;;3.22;1.42;;;;;;;;;;4914184;29;20421;-60
2023/04/06 09:46:06;;;;;;;1.95;1.50;;;;;;;;;;4912727;29;20147;-59
2023/04/06 09:48:35;;;;;;;2.85;1.42;;;;;;;;;;4915038;29;20079;-60
2023/04/06 09:51:05;;;;;;;3.05;1.73;;;;;;;;;;4914799;29;20107;-60
2023/04/06 09:53:37;;;;;;;2.13;1.20;;;;;;;;;;4915131;29;20111;-60
2023/04/06 09:56:07;;;;;;;4.65;2.75;;;;;;;;;;4914020;29;20083;-59
2023/04/06 09:58:39;;;;;;;4.70;1.98;;;;;;;;;;4912658;29;20087;-60
2023/04/06 10:01:09;;;;;;;4.25;2.15;;;;;;;;;;4912906;29;20504;-60
2023/04/06 10:03:42;;;;;;;3.42;1.70;;;;;;;;;;4907282;29;20106;-60
2023/04/06 10:06:13;;;;;;;3.05;1.50;;;;;;;;;;4910686;29;20044;-60
2023/04/06 10:08:42;;;;;;;2.97;1.88;;;;;;;;;;4912051;29;20062;-60
2023/04/06 10:11:10;;;;;;;4.82;1.90;;;;;;;;;;4914283;29;20289;-60
2023/04/06 10:13:41;;;;;;;4.80;1.65;;;;;;;;;;4914639;29;20056;-60
2023/04/06 10:16:10;;;;;;;2.22;1.77;;;;;;;;;;4912367;29;20048;-60
2023/04/06 10:18:40;;;;;;;2.38;1.70;;;;;;;;;;4914319;29;20056;-60
2023/04/06 10:21:10;;;;;;;2.85;1.92;;;;;;;;;;4912689;29;20051;-60
2023/04/06 10:23:41;;;;;;;3.00;1.50;;;;;;;;;;4910211;29;20048;-60
2023/04/06 10:26:16;;;;;;;3.33;1.55;;;;;;;;;;4913350;29;20056;-60
2023/04/06 10:28:47;;;;;;;2.75;1.63;;;;;;;;;;4914295;29;20056;-60
2023/04/06 10:31:15;;;;;;;6.13;2.20;;;;;;;;;;4912665;29;20060;-60
2023/04/06 10:33:54;;;;;;;3.88;1.92;;;;;;;;;;4901603;29;20061;-60
2023/04/06 10:36:23;;;;;;;4.80;2.10;;;;;;;;;;4913598;29;20062;-59
2023/04/06 10:38:56;;;;;;;4.68;2.13;;;;;;;;;;4912013;29;20077;-60
2023/04/06 10:41:25;;;;;;;5.30;2.40;;;;;;;;;;4910291;29;20056;-61
2023/04/06 10:43:58;;;;;;;4.57;2.28;;;;;;;;;;4913422;29;20056;-60
2023/04/06 10:46:28;;;;;;;4.65;2.42;;;;;;;;;;4911507;29;20184;-60
2023/04/06 10:48:56;;;;;;;5.22;1.85;;;;;;;;;;4913691;29;20071;-60
2023/04/06 10:51:27;;;;;;;4.53;2.47;;;;;;;;;;4912250;29;20461;-60
2023/04/06 10:53:56;;;;;;;5.28;1.92;;;;;;;;;;4901564;29;20103;-60
2023/04/06 10:56:27;;;;;;;3.90;2.38;;;;;;;;;;4912747;29;20505;-60
2023/04/06 10:58:57;;;;;;;4.03;1.98;;;;;;;;;;4913832;29;20131;-60
2023/04/06 11:01:27;;;;;;;3.40;1.70;;;;;;;;;;4911818;29;20052;-60
2023/04/06 11:03:58;;;;;;;3.90;2.08;;;;;;;;;;4912924;29;20067;-60
2023/04/06 11:06:29;;;;;;;3.90;1.90;;;;;;;;;;4911084;29;20044;-60
2023/04/06 11:08:57;;;;;;;4.72;2.60;;;;;;;;;;4913297;29;20131;-60
2023/04/06 11:11:27;;;;;;;3.92;1.92;;;;;;;;;;4913395;29;20056;-60
2023/04/06 11:13:56;;;;;;;4.43;2.15;;;;;;;;;;4913308;29;20072;-60
2023/04/06 11:16:26;;;;;;;4.18;1.88;;;;;;;;;;4908811;29;20056;-60
2023/04/06 11:18:56;;;;;;;2.83;1.60;;;;;;;;;;4904192;29;20131;-60
2023/04/06 11:21:34;;;;;;;3.95;1.67;;;;;;;;;;4913419;29;20055;-60
2023/04/06 11:24:06;;;;;;;4.65;2.25;;;;;;;;;;4912778;29;20490;-60
2023/04/06 11:26:38;;;;;;;3.67;2.20;;;;;;;;;;4912337;29;20052;-61
2023/04/06 11:29:07;;;;;;;7.20;2.50;;;;;;;;;;4913151;29;20060;-61
2023/04/06 11:31:40;;;;;;;3.65;2.03;;;;;;;;;;4911377;29;20048;-60
2023/04/06 11:34:12;;;;;;;5.28;2.08;;;;;;;;;;4899038;29;20058;-61
2023/04/06 11:36:44;;;;;;;2.45;1.48;;;;;;;;;;4909273;29;20486;-61
2023/04/06 11:39:12;;;;;;;4.07;1.77;;;;;;;;;;4913318;29;20048;-60
2023/04/06 11:41:41;;;;;;;3.97;1.77;;;;;;;;;;4911871;29;20131;-60
2023/04/06 11:44:10;;;;;;;5.30;2.03;;;;;;;;;;4912597;29;20052;-61
2023/04/06 11:46:38;;;;;;;4.40;2.00;;;;;;;;;;4909963;29;20450;-61
2023/04/06 11:49:08;;;;;;;3.55;2.05;;;;;;;;;;4913199;29;20108;-60
2023/04/06 11:51:38;;;;;;;3.85;2.03;;;;;;;;;;4913087;29;20048;-61
2023/04/06 11:54:06;;;;;;;3.72;2.00;;;;;;;;;;4912629;29;20056;-61
2023/04/06 11:56:34;;;;;;;2.95;1.50;;;;;;;;;;4911928;29;20506;-60
2023/04/06 11:59:03;;;;;;;3.33;1.75;;;;;;;;;;4913183;29;20498;-61
2023/04/06 12:01:32;;;;;;;2.60;1.48;;;;;;;;;;4911097;29;20064;-60
2023/04/06 12:04:06;;;;;;;3.15;1.92;;;;;;;;;;4912431;29;20148;-60
2023/04/06 12:06:36;;;;;;;4.15;1.90;;;;;;;;;;4911361;29;20074;-59
2023/04/06 12:09:04;;;;;;;3.10;2.03;;;;;;;;;;4913025;29;20058;-60
2023/04/06 12:11:33;;;;;;;3.35;2.15;;;;;;;;;;4912146;29;20052;-60
2023/04/06 12:14:04;;;;;;;3.05;1.63;;;;;;;;;;4913028;29;20154;-60
2023/04/06 12:16:32;;;;;;;2.72;1.50;;;;;;;;;;4910464;29;20390;-61
2023/04/06 12:19:01;;;;;;;3.25;1.90;;;;;;;;;;4912714;29;20107;-60
2023/04/06 12:21:30;;;;;;;4.45;2.30;;;;;;;;;;4914152;29;20084;-60
2023/04/06 12:24:00;;;;;;;3.10;1.38;;;;;;;;;;4916526;29;20539;-61
2023/04/06 12:26:29;;;;;;;4.35;1.40;;;;;;;;;;4915847;29;20556;-61
2023/04/06 12:29:02;;;;;;;2.28;1.20;;;;;;;;;;4916060;29;20056;-61
2023/04/06 12:31:31;;;;;;;5.43;1.70;;;;;;;;;;4911404;29;20572;-60
2023/04/06 12:33:59;;;;;;;2.63;1.75;;;;;;;;;;4916266;29;20075;-60
2023/04/06 12:36:27;;;;;;;3.33;1.83;;;;;;;;;;4915309;29;20404;-60
2023/04/06 12:38:56;;;;;;;3.33;1.98;;;;;;;;;;4915912;29;20063;-61
2023/04/06 12:41:26;;;;;;;1.88;1.20;;;;;;;;;;4914816;29;20066;-62
2023/04/06 12:43:54;;;;;;;2.85;1.88;;;;;;;;;;4915947;29;20056;-61
2023/04/06 12:46:23;;;;;;;6.65;2.25;;;;;;;;;;4913041;29;20055;-61
2023/04/06 12:48:54;;;;;;;1.40;1.25;;;;;;;;;;4915794;29;20052;-60
2023/04/06 12:51:23;;;;;;;3.85;2.20;;;;;;;;;;4913305;29;20430;-60
2023/04/06 12:53:52;;;;;;;2.20;1.38;;;;;;;;;;4915407;29;20058;-60
2023/04/06 12:56:20;;;;;;;4.00;1.63;;;;;;;;;;4915275;29;20058;-60
2023/04/06 12:58:52;;;;;;;4.00;1.67;;;;;;;;;;4915812;29;20079;-60
2023/04/06 13:01:21;;;;;;;2.50;1.50;;;;;;;;;;4912031;29;20143;-60
2023/04/06 13:03:49;;;;;;;4.43;2.00;;;;;;;;;;4915437;29;20497;-60
2023/04/06 13:06:18;;;;;;;3.78;1.75;;;;;;;;;;4914918;29;20139;-60
2023/04/06 13:08:49;;;;;;;3.13;2.53;;;;;;;;;;4915560;29;20135;-61
2023/04/06 13:11:20;;;;;;;4.32;1.63;;;;;;;;;;4915453;29;20058;-60
2023/04/06 13:13:48;;;;;;;2.10;1.30;;;;;;;;;;4915466;29;20044;-61
2023/04/06 13:16:18;;;;;;;3.42;1.90;;;;;;;;;;4913006;29;20070;-61
2023/04/06 13:18:47;;;;;;;5.82;1.30;;;;;;;;;;4915392;29;20048;-61
2023/04/06 13:21:16;;;;;;;8.95;1.55;;;;;;;;;;4915176;29;20558;-61
2023/04/06 13:23:45;;;;;;;11.05;1.63;;;;;;;;;;4915188;29;20048;-61
2023/04/06 13:26:15;;;;;;;2.63;1.42;;;;;;;;;;4914536;29;20131;-61
2023/04/06 13:28:43;;;;;;;4.32;1.40;;;;;;;;;;4915115;29;20056;-61
2023/04/06 13:31:12;;;;;;;5.15;1.58;;;;;;;;;;4911789;29;20060;-61
2023/04/06 13:33:42;;;;;;;4.28;1.55;;;;;;;;;;4901570;29;20072;-61
2023/04/06 13:36:10;;;;;;;3.72;1.17;;;;;;;;;;4914147;29;20070;-61
2023/04/06 13:38:39;;;;;;;7.60;1.63;;;;;;;;;;4915112;29;20072;-61
2023/04/06 13:41:08;;;;;;;2.00;1.40;;;;;;;;;;4914079;29;20413;-61
2023/04/06 13:43:36;;;;;;;2.80;1.70;;;;;;;;;;4914812;29;20052;-61
2023/04/06 13:46:05;;;;;;;2.83;1.88;;;;;;;;;;4909209;29;20063;-61
2023/04/06 13:48:33;;;;;;;3.72;1.35;;;;;;;;;;4915141;29;20056;-61
2023/04/06 13:51:10;;;;;;;3.72;1.55;;;;;;;;;;4914999;29;20391;-61
2023/04/06 13:53:39;;;;;;;2.92;1.58;;;;;;;;;;4912261;29;20048;-61
2023/04/06 13:56:09;;;;;;;2.92;1.60;;;;;;;;;;4914733;29;20052;-61
2023/04/06 13:58:37;;;;;;;2.72;1.13;;;;;;;;;;4914342;29;20414;-61
2023/04/06 14:01:07;;;;;;;1.92;1.40;;;;;;;;;;4913102;29;20079;-61
2023/04/06 14:03:36;;;;;;;2.63;1.00;;;;;;;;;;4901368;29;20051;-61
2023/04/06 14:06:12;;;;;;;3.38;1.65;;;;;;;;;;4913392;29;20497;-61
2023/04/06 14:08:57;;;;;;;4.47;2.33;;;;;;;;;;4911177;29;20048;-61
2023/04/06 14:11:26;;;;;;;2.80;1.45;;;;;;;;;;4911246;29;20144;-62
2023/04/06 14:13:54;;;;;;;7.35;1.70;;;;;;;;;;4914075;29;20076;-62
2023/04/06 14:16:26;;;;;;;4.20;2.00;;;;;;;;;;4910399;29;20557;-62
2023/04/06 14:18:54;;;;;;;1.67;1.40;;;;;;;;;;4913908;29;20135;-61
2023/04/06 14:21:24;;;;;;;3.15;1.42;;;;;;;;;;4914544;29;20116;-61
2023/04/06 14:23:53;;;;;;;2.58;1.58;;;;;;;;;;4914332;29;20048;-62
2023/04/06 14:26:23;;;;;;;4.43;1.50;;;;;;;;;;4914089;29;20079;-62
2023/04/06 14:28:51;;;;;;;4.40;2.42;;;;;;;;;;4914232;29;20157;-62
2023/04/06 14:31:20;;;;;;;3.45;1.98;;;;;;;;;;4911640;29;20052;-61
2023/04/06 14:33:48;;;;;;;1.90;1.15;;;;;;;;;;4914375;29;20460;-61
2023/04/06 14:36:16;;;;;;;3.05;1.48;;;;;;;;;;4910071;29;20103;-61
2023/04/06 14:38:47;;;;;;;2.50;1.30;;;;;;;;;;4912134;29;20058;-61
2023/04/06 14:41:19;;;;;;;6.97;1.77;;;;;;;;;;4912606;29;20067;-61
2023/04/06 14:43:48;;;;;;;4.45;1.30;;;;;;;;;;4913078;29;20396;-61
2023/04/06 14:46:16;;;;;;;1.92;1.20;;;;;;;;;;4911827;29;20305;-61
2023/04/06 14:48:46;;;;;;;2.47;1.70;;;;;;;;;;4913985;29;20068;-61
2023/04/06 14:51:14;;;;;;;3.25;1.40;;;;;;;;;;4913899;29;20134;-61
2023/04/06 14:53:43;;;;;;;4.60;1.42;;;;;;;;;;4910932;29;20055;-61